createdAt,value
2018-01-27T00:00:01.318Z,94.71
2018-01-27T00:01:01.277Z,94.76
2018-01-27T00:02:01.427Z,94.83
2018-01-27T00:03:01.346Z,94.94
2018-01-27T00:04:01.318Z,94.55
2018-01-27T00:05:01.358Z,94.72
2018-01-27T00:06:01.316Z,94.6
2018-01-27T00:07:01.449Z,94.74
2018-01-27T00:08:02.041Z,94.76
2018-01-27T00:09:01.339Z,94.72
2018-01-27T00:10:01.463Z,94.7
2018-01-27T00:11:01.441Z,94.67
2018-01-27T00:12:01.407Z,95.02
2018-01-27T00:13:01.320Z,94.81
2018-01-27T00:14:01.307Z,94.67
2018-01-27T00:15:01.365Z,94.84
2018-01-27T00:16:01.404Z,94.85
2018-01-27T00:17:01.263Z,94.44
2018-01-27T00:18:01.439Z,94.35
2018-01-27T00:19:01.361Z,94.09
2018-01-27T00:20:01.693Z,94.07
2018-01-27T00:21:01.356Z,94.23
2018-01-27T00:22:01.527Z,94.44
2018-01-27T00:23:01.533Z,94.73
2018-01-27T00:24:01.337Z,94.68
2018-01-27T00:25:01.384Z,94.61
2018-01-27T00:26:01.476Z,94.4
2018-01-27T00:27:01.422Z,94.46
2018-01-27T00:28:01.498Z,94.2
2018-01-27T00:29:01.765Z,94.23
2018-01-27T00:30:01.971Z,94.23
2018-01-27T00:31:01.654Z,94.26
2018-01-27T00:32:02.209Z,94.45
2018-01-27T00:33:01.440Z,94.38
2018-01-27T00:34:01.430Z,94.11
2018-01-27T00:35:01.568Z,93.86
2018-01-27T00:36:01.414Z,94.08
2018-01-27T00:37:01.449Z,94.12
2018-01-27T00:38:01.326Z,94.01
2018-01-27T00:39:02.031Z,94.12
2018-01-27T00:40:01.450Z,94.22
2018-01-27T00:41:01.419Z,94.25
2018-01-27T00:42:01.369Z,93.98
2018-01-27T00:43:01.559Z,94.18
2018-01-27T00:44:01.476Z,94.2
2018-01-27T00:45:01.376Z,93.94
2018-01-27T00:46:02.182Z,94.02
2018-01-27T00:47:01.400Z,93.77
2018-01-27T00:48:02.075Z,93.95
2018-01-27T00:49:01.394Z,93.94
2018-01-27T00:50:03.131Z,93.99
2018-01-27T00:51:01.546Z,93.76
2018-01-27T00:52:01.587Z,93.88
2018-01-27T00:53:01.385Z,93.9
2018-01-27T00:54:01.365Z,94.15
2018-01-27T00:55:01.345Z,94.23
2018-01-27T00:56:01.439Z,94.07
2018-01-27T00:57:01.337Z,93.91
2018-01-27T00:58:01.512Z,93.99
2018-01-27T00:59:01.373Z,94.02
2018-01-27T01:00:01.491Z,94.31
2018-01-27T01:01:01.498Z,93.9
2018-01-27T01:02:02.418Z,94.15
2018-01-27T01:03:01.577Z,93.81
2018-01-27T01:04:01.558Z,93.79
2018-01-27T01:05:01.424Z,93.83
2018-01-27T01:06:01.550Z,94.04
2018-01-27T01:07:01.588Z,93.94
2018-01-27T01:08:01.396Z,93.83
2018-01-27T01:09:01.452Z,93.99
2018-01-27T01:10:01.469Z,93.77
2018-01-27T01:11:01.381Z,94.21
2018-01-27T01:12:01.552Z,93.86
2018-01-27T01:13:02.251Z,94.16
2018-01-27T01:14:01.451Z,94.12
2018-01-27T01:15:02.142Z,94.23
2018-01-27T01:16:01.398Z,94.24
2018-01-27T01:17:01.498Z,94.08
2018-01-27T01:18:01.397Z,93.82
2018-01-27T01:19:01.451Z,93.82
2018-01-27T01:20:02.053Z,94.03
2018-01-27T01:21:01.431Z,94.21
2018-01-27T01:22:01.533Z,94.29
2018-01-27T01:23:01.448Z,94.08
2018-01-27T01:24:01.579Z,94.25
2018-01-27T01:25:01.565Z,94.19
2018-01-27T01:26:01.482Z,93.98
2018-01-27T01:27:01.431Z,94.24
2018-01-27T01:28:02.228Z,94.41
2018-01-27T01:29:01.489Z,94.21
2018-01-27T01:30:01.581Z,94.2
2018-01-27T01:31:01.394Z,94.39
2018-01-27T01:32:01.469Z,94.17
2018-01-27T01:33:01.480Z,94.6
2018-01-27T01:34:01.473Z,94.56
2018-01-27T01:35:01.491Z,94.35
2018-01-27T01:36:02.291Z,94.42
2018-01-27T01:37:01.682Z,94.39
2018-01-27T01:38:02.042Z,94.26
2018-01-27T01:39:01.395Z,94.09
2018-01-27T01:40:01.463Z,94.07
2018-01-27T01:41:01.522Z,94.45
2018-01-27T01:42:01.493Z,94.27
2018-01-27T01:43:02.129Z,94.4
2018-01-27T01:44:01.543Z,94.2
2018-01-27T01:45:01.541Z,94.47
2018-01-27T01:46:01.619Z,94.56
2018-01-27T01:47:01.854Z,94.61
2018-01-27T01:48:01.483Z,94.34
2018-01-27T01:49:01.516Z,93.89
2018-01-27T01:50:01.595Z,94.17
2018-01-27T01:51:02.163Z,94.47
2018-01-27T01:52:01.579Z,94.18
2018-01-27T01:53:01.525Z,94.52
2018-01-27T01:54:01.462Z,94.08
2018-01-27T01:55:01.535Z,94.22
2018-01-27T01:56:01.429Z,94.14
2018-01-27T01:57:01.489Z,93.9
2018-01-27T01:58:01.464Z,94.31
2018-01-27T01:59:01.456Z,94.38
2018-01-27T02:00:01.634Z,94.25
2018-01-27T02:01:01.484Z,94.32
2018-01-27T02:02:01.545Z,94.44
2018-01-27T02:03:01.573Z,94.28
2018-01-27T02:04:01.573Z,94.12
2018-01-27T02:05:01.544Z,94.35
2018-01-27T02:06:01.464Z,94.81
2018-01-27T02:07:01.670Z,94.55
2018-01-27T02:08:01.475Z,95.13
2018-01-27T02:09:02.212Z,94.78
2018-01-27T02:10:01.515Z,94.5
2018-01-27T02:11:01.466Z,94.48
2018-01-27T02:12:01.560Z,94.37
2018-01-27T02:13:01.449Z,94.37
2018-01-27T02:14:02.083Z,94.47
2018-01-27T02:15:01.597Z,94.18
2018-01-27T02:16:01.494Z,94.57
2018-01-27T02:17:01.465Z,94.33
2018-01-27T02:18:01.661Z,94.37
2018-01-27T02:19:01.566Z,94.39
2018-01-27T02:20:01.657Z,94.26
2018-01-27T02:21:01.541Z,94.4
2018-01-27T02:22:01.641Z,94.4
2018-01-27T02:23:01.693Z,94.48
2018-01-27T02:24:01.654Z,94.43
2018-01-27T02:25:01.582Z,94.4
2018-01-27T02:26:01.832Z,95
2018-01-27T02:27:01.554Z,95.08
2018-01-27T02:28:01.507Z,94.9
2018-01-27T02:29:01.586Z,94.85
2018-01-27T02:30:01.513Z,94.75
2018-01-27T02:31:01.592Z,95.07
2018-01-27T02:32:01.627Z,95.01
2018-01-27T02:33:01.546Z,95.07
2018-01-27T02:34:01.540Z,94.88
2018-01-27T02:35:01.608Z,95.16
2018-01-27T02:36:01.568Z,94.66
2018-01-27T02:37:01.659Z,95.01
2018-01-27T02:38:01.610Z,94.98
2018-01-27T02:39:01.582Z,95.33
2018-01-27T02:40:01.619Z,95.46
2018-01-27T02:41:01.561Z,95.52
2018-01-27T02:42:01.556Z,95.81
2018-01-27T02:43:01.633Z,95.93
2018-01-27T02:44:02.325Z,95.97
2018-01-27T02:45:01.664Z,96.25
2018-01-27T02:46:01.591Z,96.17
2018-01-27T02:47:01.521Z,96.13
2018-01-27T02:48:01.569Z,96.09
2018-01-27T02:49:01.573Z,96.47
2018-01-27T02:50:01.609Z,96.08
2018-01-27T02:51:02.347Z,96.02
2018-01-27T02:52:01.669Z,95.84
2018-01-27T02:53:01.663Z,96.11
2018-01-27T02:54:01.633Z,95.87
2018-01-27T02:55:01.583Z,95.82
2018-01-27T02:56:01.635Z,96.09
2018-01-27T02:57:02.508Z,96.08
2018-01-27T02:58:01.634Z,95.87
2018-01-27T02:59:01.735Z,96.03
2018-01-27T03:00:01.557Z,95.93
2018-01-27T03:01:01.771Z,96.31
2018-01-27T03:02:01.628Z,96.13
2018-01-27T03:03:02.283Z,96.79
2018-01-27T03:04:01.790Z,96.57
2018-01-27T03:05:02.089Z,96.87
2018-01-27T03:06:01.679Z,96.78
2018-01-27T03:07:01.545Z,97.12
2018-01-27T03:08:01.562Z,96.64
2018-01-27T03:09:01.473Z,96.74
2018-01-27T03:10:01.486Z,96.41
2018-01-27T03:11:01.551Z,96.91
2018-01-27T03:12:01.515Z,96.37
2018-01-27T03:13:01.606Z,96.7
2018-01-27T03:14:01.685Z,96.38
2018-01-27T03:15:01.624Z,96.07
2018-01-27T03:16:01.637Z,96.55
2018-01-27T03:17:01.652Z,96.41
2018-01-27T03:18:01.580Z,96.15
2018-01-27T03:19:01.708Z,96.03
2018-01-27T03:20:01.541Z,96.22
2018-01-27T03:21:01.590Z,95.99
2018-01-27T03:22:01.709Z,96.23
2018-01-27T03:23:01.723Z,96.17
2018-01-27T03:24:01.737Z,96.14
2018-01-27T03:25:01.616Z,96.04
2018-01-27T03:26:01.726Z,96.4
2018-01-27T03:27:02.285Z,96.37
2018-01-27T03:28:01.722Z,96.33
2018-01-27T03:29:01.686Z,96.81
2018-01-27T03:30:01.690Z,96.66
2018-01-27T03:31:01.710Z,96.73
2018-01-27T03:32:02.410Z,97.16
2018-01-27T03:33:01.633Z,96.93
2018-01-27T03:34:01.615Z,97.28
2018-01-27T03:35:01.707Z,97.24
2018-01-27T03:36:01.677Z,97.5
2018-01-27T03:37:01.631Z,97.52
2018-01-27T03:38:02.240Z,97.77
2018-01-27T03:39:01.925Z,97.83
2018-01-27T03:40:01.692Z,97.7
2018-01-27T03:41:01.607Z,97.67
2018-01-27T03:42:01.685Z,98.31
2018-01-27T03:43:01.791Z,98.05
2018-01-27T03:44:01.774Z,98.24
2018-01-27T03:45:01.812Z,98.45
2018-01-27T03:46:01.729Z,98.59
2018-01-27T03:47:01.676Z,98.62
2018-01-27T03:48:01.713Z,98.52
2018-01-27T03:49:01.703Z,98.51
2018-01-27T03:50:01.777Z,98.62
2018-01-27T03:51:01.646Z,98.79
2018-01-27T03:52:01.884Z,98.58
2018-01-27T03:53:01.789Z,98.69
2018-01-27T03:54:01.731Z,99.08
2018-01-27T03:55:02.070Z,99.05
2018-01-27T03:56:01.756Z,99.02
2018-01-27T03:57:02.849Z,99.19
2018-01-27T03:58:01.969Z,99.3
2018-01-27T03:59:01.716Z,99.13
2018-01-27T04:00:01.948Z,99.38
2018-01-27T04:01:01.873Z,99.16
2018-01-27T04:02:01.836Z,99.36
2018-01-27T04:03:02.866Z,99.78
2018-01-27T04:04:01.711Z,99.64
2018-01-27T04:06:01.685Z,99.62
2018-01-27T04:07:02.486Z,99.75
2018-01-27T04:08:02.336Z,99.71
2018-01-27T04:09:01.706Z,99.81
2018-01-27T04:10:01.679Z,99.88
2018-01-27T04:11:01.649Z,99.94
2018-01-27T04:12:02.606Z,99.69
2018-01-27T04:13:02.549Z,100
2018-01-27T04:14:01.732Z,100
2018-01-27T04:15:02.383Z,100
2018-01-27T04:16:01.817Z,100
2018-01-27T04:17:01.896Z,99.84
2018-01-27T04:18:01.635Z,100
2018-01-27T04:19:01.735Z,100
2018-01-27T04:20:02.509Z,100
2018-01-27T04:21:01.879Z,100
2018-01-27T04:22:02.656Z,100
2018-01-27T04:23:01.804Z,100
2018-01-27T04:24:02.023Z,100
2018-01-27T04:25:01.884Z,100
2018-01-27T04:26:01.885Z,100
2018-01-27T04:27:02.512Z,100
2018-01-27T04:28:01.956Z,100
2018-01-27T04:29:01.906Z,100
2018-01-27T04:30:01.740Z,100
2018-01-27T04:31:01.930Z,100
2018-01-27T04:32:01.970Z,100
2018-01-27T04:33:02.429Z,100
2018-01-27T04:34:01.734Z,100
2018-01-27T04:35:01.762Z,99.96
2018-01-27T04:36:01.699Z,99.94
2018-01-27T04:37:02.463Z,99.83
2018-01-27T04:38:01.897Z,99.73
2018-01-27T04:39:01.694Z,99.56
2018-01-27T04:40:02.147Z,99.9
2018-01-27T04:41:01.735Z,99.76
2018-01-27T04:42:01.707Z,99.94
2018-01-27T04:43:01.881Z,99.82
2018-01-27T04:44:02.527Z,99.79
2018-01-27T04:45:01.883Z,99.57
2018-01-27T04:46:01.685Z,99.47
2018-01-27T04:47:02.012Z,100
2018-01-27T04:48:02.058Z,99.57
2018-01-27T04:49:01.733Z,99.79
2018-01-27T04:50:01.888Z,99.32
2018-01-27T04:51:03.102Z,99.81
2018-01-27T04:52:02.682Z,99.38
2018-01-27T04:53:01.898Z,99.39
2018-01-27T04:54:02.538Z,99.07
2018-01-27T04:55:02.027Z,99.12
2018-01-27T04:56:03.269Z,99.5
2018-01-27T04:57:02.163Z,99.49
2018-01-27T04:58:02.631Z,99.16
2018-01-27T04:59:03.855Z,99.2
2018-01-27T05:00:01.949Z,99.54
2018-01-27T05:01:04.323Z,99.27
2018-01-27T05:02:03.924Z,99.01
2018-01-27T05:03:02.055Z,99.1
2018-01-27T05:04:01.948Z,98.98
2018-01-27T05:05:01.985Z,98.94
2018-01-27T05:06:02.027Z,99.07
2018-01-27T05:07:01.962Z,98.57
2018-01-27T05:08:02.623Z,99.02
2018-01-27T05:09:06.852Z,98.6
2018-01-27T05:10:02.735Z,98.79
2018-01-27T05:11:01.922Z,98.62
2018-01-27T05:12:01.903Z,98.94
2018-01-27T05:13:03.528Z,98.96
2018-01-27T05:14:01.948Z,98.33
2018-01-27T05:15:02.539Z,98.74
2018-01-27T05:16:02.012Z,98.36
2018-01-27T05:17:02.780Z,98.72
2018-01-27T05:18:01.922Z,98.91
2018-01-27T05:19:03.247Z,99.14
2018-01-27T05:20:02.378Z,99.15
2018-01-27T05:21:02.838Z,99.22
2018-01-27T05:22:02.064Z,99.23
2018-01-27T05:23:02.874Z,98.88
2018-01-27T05:24:01.985Z,98.83
2018-01-27T05:25:06.284Z,98.58
2018-01-27T05:26:02.617Z,98.77
2018-01-27T05:27:02.079Z,98.23
2018-01-27T05:28:02.675Z,98.26
2018-01-27T05:29:02.726Z,98.11
2018-01-27T05:30:03.303Z,97.81
2018-01-27T05:31:02.141Z,98.27
2018-01-27T05:32:02.263Z,98.01
2018-01-27T05:33:02.892Z,98.03
2018-01-27T05:34:02.746Z,98.55
2018-01-27T05:35:02.213Z,98.22
2018-01-27T05:36:02.051Z,98.24
2018-01-27T05:37:02.258Z,97.83
2018-01-27T05:38:02.091Z,98.14
2018-01-27T05:39:02.133Z,97.78
2018-01-27T05:40:03.466Z,97.84
2018-01-27T05:41:02.241Z,97.61
2018-01-27T05:42:02.341Z,97.5
2018-01-27T05:43:02.090Z,97.71
2018-01-27T05:44:02.046Z,97.59
2018-01-27T05:45:03.410Z,97.41
2018-01-27T05:46:02.263Z,97.43
2018-01-27T05:47:02.010Z,97.47
2018-01-27T05:48:02.135Z,97.43
2018-01-27T05:49:02.731Z,97.48
2018-01-27T05:50:02.006Z,97.37
2018-01-27T05:51:02.618Z,97.89
2018-01-27T05:52:02.066Z,97.93
2018-01-27T05:53:02.067Z,98.18
2018-01-27T05:54:02.182Z,98.49
2018-01-27T05:55:02.100Z,98.18
2018-01-27T05:56:02.025Z,98.31
2018-01-27T05:59:02.157Z,98.62
2018-01-27T06:00:02.015Z,98.32
2018-01-27T06:01:02.102Z,99.04
2018-01-27T06:02:02.058Z,99.29
2018-01-27T06:03:02.013Z,98.5
2018-01-27T06:04:02.118Z,98.83
2018-01-27T06:05:02.027Z,98.6
2018-01-27T06:06:02.158Z,98.66
2018-01-27T06:07:02.041Z,98.75
2018-01-27T06:08:02.071Z,99.01
2018-01-27T06:09:02.067Z,99.29
2018-01-27T06:10:02.012Z,98.7
2018-01-27T06:11:02.147Z,98.83
2018-01-27T06:12:02.056Z,98.86
2018-01-27T06:13:02.104Z,98.9
2018-01-27T06:14:02.095Z,98.79
2018-01-27T06:15:02.019Z,99.36
2018-01-27T06:16:02.035Z,99.06
2018-01-27T06:17:02.076Z,98.93
2018-01-27T06:18:02.060Z,98.7
2018-01-27T06:19:02.076Z,98.99
2018-01-27T06:20:02.027Z,98.92
2018-01-27T06:21:02.020Z,99.38
2018-01-27T06:22:02.167Z,99.32
2018-01-27T06:23:02.134Z,98.79
2018-01-27T06:24:02.141Z,99.08
2018-01-27T06:25:02.150Z,98.69
2018-01-27T06:26:02.095Z,99.13
2018-01-27T06:27:02.086Z,99.09
2018-01-27T06:28:02.130Z,98.75
2018-01-27T06:29:02.133Z,98.85
2018-01-27T06:30:02.109Z,98.62
2018-01-27T06:31:02.139Z,98.97
2018-01-27T06:32:02.085Z,98.64
2018-01-27T06:33:02.130Z,98.73
2018-01-27T06:34:02.225Z,98.53
2018-01-27T06:35:02.126Z,98.13
2018-01-27T06:36:02.148Z,98.34
2018-01-27T06:37:02.155Z,98.56
2018-01-27T06:38:02.134Z,98.15
2018-01-27T06:39:02.090Z,97.92
2018-01-27T06:40:03.531Z,97.55
2018-01-27T06:41:02.125Z,98.08
2018-01-27T06:42:02.143Z,98.41
2018-01-27T06:43:02.167Z,98.23
2018-01-27T06:44:02.118Z,98.57
2018-01-27T06:45:02.175Z,98.29
2018-01-27T06:46:02.208Z,98.13
2018-01-27T06:47:02.151Z,98.75
2018-01-27T06:48:02.128Z,98.77
2018-01-27T06:49:02.158Z,98.75
2018-01-27T06:50:02.472Z,98.5
2018-01-27T06:51:02.183Z,98.44
2018-01-27T06:52:02.359Z,98.37
2018-01-27T06:53:01.399Z,98.37
2018-01-27T06:54:01.398Z,97.93
2018-01-27T06:55:01.312Z,98.46
2018-01-27T06:56:01.354Z,98.48
2018-01-27T06:57:01.412Z,98.21
2018-01-27T06:58:01.378Z,98.36
2018-01-27T06:59:01.329Z,98.35
2018-01-27T07:00:01.378Z,98.33
2018-01-27T07:01:01.328Z,97.98
2018-01-27T07:02:01.494Z,98.41
2018-01-27T07:03:01.332Z,98.03
2018-01-27T07:04:01.471Z,98.02
2018-01-27T07:05:01.348Z,98.19
2018-01-27T07:06:01.405Z,98.26
2018-01-27T07:07:01.435Z,98.06
2018-01-27T07:08:01.360Z,98.52
2018-01-27T07:09:01.369Z,98.43
2018-01-27T07:10:01.394Z,98.2
2018-01-27T07:11:01.341Z,98.66
2018-01-27T07:12:01.371Z,98.23
2018-01-27T07:13:01.438Z,98.35
2018-01-27T07:14:01.391Z,98.43
2018-01-27T07:15:01.407Z,98.44
2018-01-27T07:16:01.440Z,98.39
2018-01-27T07:17:01.364Z,98.6
2018-01-27T07:18:01.381Z,98.44
2018-01-27T07:19:01.441Z,98.56
2018-01-27T07:20:01.658Z,98.62
2018-01-27T07:21:01.356Z,98.49
2018-01-27T07:22:01.339Z,99.23
2018-01-27T07:23:01.460Z,98.93
2018-01-27T07:24:01.409Z,99.09
2018-01-27T07:25:01.603Z,99.04
2018-01-27T07:26:01.406Z,99.35
2018-01-27T07:27:01.432Z,99.16
2018-01-27T07:28:01.415Z,99.34
2018-01-27T07:29:01.459Z,99.24
2018-01-27T07:30:01.466Z,99.25
2018-01-27T07:31:01.678Z,99.46
2018-01-27T07:32:01.434Z,98.72
2018-01-27T07:33:01.411Z,99.34
2018-01-27T07:34:01.438Z,99.25
2018-01-27T07:35:01.449Z,99.02
2018-01-27T07:36:01.454Z,99.14
2018-01-27T07:37:01.444Z,99.12
2018-01-27T07:38:01.398Z,98.79
2018-01-27T07:39:01.418Z,99.1
2018-01-27T07:40:02.163Z,98.42
2018-01-27T07:41:01.408Z,98.29
2018-01-27T07:42:01.391Z,98.17
2018-01-27T07:43:01.499Z,98.33
2018-01-27T07:44:01.430Z,98.4
2018-01-27T07:45:01.565Z,98.9
2018-01-27T07:46:01.407Z,98.74
2018-01-27T07:47:01.407Z,98.33
2018-01-27T07:48:01.454Z,98.88
2018-01-27T07:49:01.421Z,99.04
2018-01-27T07:50:01.458Z,99.65
2018-01-27T07:51:01.403Z,99.57
2018-01-27T07:52:01.418Z,99.92
2018-01-27T07:53:01.587Z,99.8
2018-01-27T07:54:01.450Z,99.5
2018-01-27T07:55:01.492Z,99.55
2018-01-27T07:56:01.489Z,99.77
2018-01-27T07:57:01.472Z,99.69
2018-01-27T07:58:01.531Z,100
2018-01-27T07:59:01.496Z,99.71
2018-01-27T08:00:01.454Z,99.39
2018-01-27T08:01:01.495Z,99.78
2018-01-27T08:02:01.529Z,99.83
2018-01-27T08:03:01.501Z,99.51
2018-01-27T08:04:01.471Z,99.43
2018-01-27T08:05:01.586Z,99.59
2018-01-27T08:06:01.482Z,99.61
2018-01-27T08:07:01.472Z,100
2018-01-27T08:08:01.469Z,99.98
2018-01-27T08:09:01.487Z,100
2018-01-27T08:10:01.465Z,99.82
2018-01-27T08:11:01.461Z,100
2018-01-27T08:12:01.585Z,99.97
2018-01-27T08:13:01.492Z,100
2018-01-27T08:14:01.484Z,100
2018-01-27T08:15:01.446Z,99.98
2018-01-27T08:16:01.509Z,99.72
2018-01-27T08:17:01.516Z,99.52
2018-01-27T08:18:01.447Z,99.7
2018-01-27T08:19:01.464Z,100
2018-01-27T08:20:01.471Z,99.15
2018-01-27T08:21:02.069Z,99.45
2018-01-27T08:22:01.554Z,99.15
2018-01-27T08:23:01.600Z,99.12
2018-01-27T08:24:01.628Z,98.9
2018-01-27T08:25:01.537Z,99.59
2018-01-27T08:26:01.478Z,99.53
2018-01-27T08:27:01.552Z,99.09
2018-01-27T08:28:01.631Z,99.06
2018-01-27T08:29:01.533Z,99.27
2018-01-27T08:30:01.551Z,99.13
2018-01-27T08:31:01.536Z,99.55
2018-01-27T08:32:01.591Z,99.38
2018-01-27T08:33:01.541Z,99.26
2018-01-27T08:36:15.650Z,99.07
2018-01-27T08:37:01.521Z,99.18
2018-01-27T08:38:01.541Z,98.86
2018-01-27T08:39:01.550Z,99.01
2018-01-27T08:40:01.543Z,99.06
2018-01-27T08:41:01.593Z,98.96
2018-01-27T08:42:01.544Z,98.39
2018-01-27T08:43:01.536Z,98.54
2018-01-27T08:44:01.540Z,98.58
2018-01-27T08:45:01.543Z,98.52
2018-01-27T08:46:01.568Z,99.05
2018-01-27T08:47:01.572Z,98.97
2018-01-27T08:48:01.622Z,99.15
2018-01-27T08:49:01.553Z,98.96
2018-01-27T08:50:01.532Z,99.25
2018-01-27T08:51:01.547Z,99.38
2018-01-27T08:52:01.547Z,99.08
2018-01-27T08:53:01.605Z,99.08
2018-01-27T08:54:01.715Z,98.79
2018-01-27T08:55:01.600Z,99.25
2018-01-27T08:56:01.600Z,99.58
2018-01-27T08:57:01.584Z,99.07
2018-01-27T08:58:02.125Z,98.52
2018-01-27T08:59:01.617Z,98.35
2018-01-27T09:00:01.552Z,98.98
2018-01-27T09:01:01.613Z,98.75
2018-01-27T09:02:01.574Z,97.87
2018-01-27T09:03:01.564Z,98.71
2018-01-27T09:04:01.662Z,98.62
2018-01-27T09:05:01.579Z,98.7
2018-01-27T09:06:26.610Z,98.86
2018-01-27T09:07:01.599Z,98.8
2018-01-27T09:08:01.577Z,98.85
2018-01-27T09:09:01.703Z,98.81
2018-01-27T09:10:18.076Z,98.87
2018-01-27T09:11:17.865Z,98.52
2018-01-27T09:12:17.528Z,98.57
2018-01-27T09:13:17.899Z,98.51
2018-01-27T09:14:17.846Z,98.72
2018-01-27T09:15:17.804Z,98.07
2018-01-27T09:16:17.915Z,98.26
2018-01-27T09:17:17.849Z,97.7
2018-01-27T09:18:17.965Z,98.64
2018-01-27T09:19:17.934Z,98.62
2018-01-27T09:20:17.724Z,98.03
2018-01-27T09:21:17.744Z,98.03
2018-01-27T09:22:18.250Z,98.15
2018-01-27T09:23:17.824Z,97.98
2018-01-27T09:24:16.757Z,97.91
2018-01-27T09:25:16.794Z,97.82
2018-01-27T09:26:16.748Z,98.21
2018-01-27T09:27:16.833Z,98.15
2018-01-27T09:28:16.808Z,97.66
2018-01-27T09:29:16.710Z,97.66
2018-01-27T09:30:17.108Z,97.8
2018-01-27T09:31:16.786Z,98.37
2018-01-27T09:32:16.752Z,98.63
2018-01-27T09:33:16.740Z,98.51
2018-01-27T09:34:16.722Z,98.63
2018-01-27T09:35:16.817Z,98.2
2018-01-27T09:36:16.748Z,97.94
2018-01-27T09:37:16.754Z,98.03
2018-01-27T09:38:16.765Z,98.18
2018-01-27T09:39:16.762Z,98.54
2018-01-27T09:40:16.851Z,98.83
2018-01-27T09:41:16.784Z,98.95
2018-01-27T09:42:16.824Z,99.03
2018-01-27T09:43:16.787Z,98.65
2018-01-27T09:44:16.793Z,98.67
2018-01-27T09:45:16.785Z,99.23
2018-01-27T09:46:16.750Z,98.64
2018-01-27T09:47:16.835Z,98.47
2018-01-27T09:48:16.790Z,98.01
2018-01-27T09:49:16.813Z,98.57
2018-01-27T09:50:16.840Z,98.29
2018-01-27T09:51:16.799Z,97.46
2018-01-27T09:52:16.896Z,97.63
2018-01-27T09:53:16.753Z,97.93
2018-01-27T09:54:16.793Z,97.96
2018-01-27T09:55:16.781Z,97.85
2018-01-27T09:56:16.895Z,98.19
2018-01-27T09:57:27.423Z,97.95
2018-01-27T09:58:19.048Z,98.01
2018-01-27T09:59:17.804Z,97.85
2018-01-27T10:00:17.065Z,97.79
2018-01-27T10:01:17.596Z,97.79
2018-01-27T10:02:16.959Z,97.69
2018-01-27T10:03:16.768Z,97.8
2018-01-27T10:04:17.050Z,97.37
2018-01-27T10:05:18.680Z,97.31
2018-01-27T10:06:17.943Z,96.75
2018-01-27T10:07:16.862Z,97.08
2018-01-27T10:08:16.871Z,96.66
2018-01-27T10:09:17.427Z,97.01
2018-01-27T10:10:20.916Z,96.69
2018-01-27T10:11:22.407Z,96.87
2018-01-27T10:12:21.353Z,96.93
2018-01-27T10:13:16.646Z,96.91
2018-01-27T10:14:16.616Z,97.13
2018-01-27T10:15:16.611Z,97.04
2018-01-27T10:16:19.321Z,96.99
2018-01-27T10:17:16.493Z,96.33
2018-01-27T10:18:16.434Z,96.17
2018-01-27T10:19:43.307Z,96.03
2018-01-27T10:20:16.670Z,96.82
2018-01-27T10:21:16.832Z,97.21
2018-01-27T10:22:16.738Z,97.35
2018-01-27T10:23:16.467Z,97.85
2018-01-27T10:24:16.506Z,97.5
2018-01-27T10:25:17.392Z,97.72
2018-01-27T10:26:18.757Z,98.32
2018-01-27T10:27:17.137Z,97.92
2018-01-27T10:28:16.534Z,98.65
2018-01-27T10:29:16.481Z,98.49
2018-01-27T10:30:18.101Z,98.54
2018-01-27T10:31:16.498Z,98.26
2018-01-27T10:32:16.496Z,98.8
2018-01-27T10:33:16.434Z,98.52
2018-01-27T10:34:17.358Z,98.48
2018-01-27T10:35:17.243Z,98.39
2018-01-27T10:36:19.961Z,98.6
2018-01-27T10:37:17.328Z,98.73
2018-01-27T10:38:16.650Z,98.41
2018-01-27T10:39:16.473Z,98.83
2018-01-27T10:40:16.397Z,98.17
2018-01-27T10:41:16.678Z,97.76
2018-01-27T10:42:16.597Z,98.11
2018-01-27T10:43:17.068Z,98.43
2018-01-27T10:44:16.606Z,98.38
2018-01-27T10:45:17.232Z,98.93
2018-01-27T10:46:16.488Z,98.25
2018-01-27T10:47:16.449Z,98.2
2018-01-27T10:48:16.719Z,98.75
2018-01-27T10:49:16.762Z,98.29
2018-01-27T10:50:18.360Z,98.17
2018-01-27T10:51:16.657Z,98.4
2018-01-27T10:52:16.584Z,99
2018-01-27T10:53:16.957Z,98.35
2018-01-27T10:54:17.343Z,98.9
2018-01-27T10:55:16.431Z,99.25
2018-01-27T10:56:16.457Z,98.49
2018-01-27T10:57:17.508Z,98.48
2018-01-27T10:58:17.518Z,98.96
2018-01-27T10:59:19.971Z,99.42
2018-01-27T11:00:16.528Z,98.7
2018-01-27T11:01:16.518Z,98.79
2018-01-27T11:02:16.542Z,98.54
2018-01-27T11:03:16.542Z,98.78
2018-01-27T11:04:16.744Z,98.56
2018-01-27T11:05:17.296Z,98.43
2018-01-27T11:06:16.471Z,97.71
2018-01-27T11:07:17.011Z,97.3
2018-01-27T11:08:18.614Z,97.53
2018-01-27T11:09:16.528Z,96.81
2018-01-27T11:10:16.553Z,97.13
2018-01-27T11:11:17.206Z,97.73
2018-01-27T11:12:16.600Z,97.33
2018-01-27T11:13:16.657Z,97.46
2018-01-27T11:14:16.632Z,97.65
2018-01-27T11:15:16.655Z,97.63
2018-01-27T11:16:16.655Z,97.79
2018-01-27T11:17:17.319Z,97.48
2018-01-27T11:18:16.752Z,97.94
2018-01-27T11:19:17.275Z,97.67
2018-01-27T11:20:17.059Z,97.57
2018-01-27T11:21:16.541Z,97.37
2018-01-27T11:22:16.570Z,97.3
2018-01-27T11:23:17.359Z,97.28
2018-01-27T11:24:16.591Z,97.44
2018-01-27T11:25:16.607Z,97.68
2018-01-27T11:26:16.710Z,97.92
2018-01-27T11:27:17.285Z,97.92
2018-01-27T11:28:18.075Z,97.53
2018-01-27T11:29:21.968Z,97.1
2018-01-27T11:30:16.584Z,97.17
2018-01-27T11:31:16.953Z,96.97
2018-01-27T11:32:17.103Z,97.12
2018-01-27T11:33:16.520Z,97.24
2018-01-27T11:34:17.394Z,96.78
2018-01-27T11:35:17.011Z,97.31
2018-01-27T11:36:17.298Z,96.83
2018-01-27T11:37:17.412Z,96.81
2018-01-27T11:38:16.552Z,96.53
2018-01-27T11:39:16.520Z,96.55
2018-01-27T11:40:16.706Z,96.23
2018-01-27T11:41:16.553Z,96.52
2018-01-27T11:42:16.724Z,96.2
2018-01-27T11:43:16.942Z,95.21
2018-01-27T11:44:16.729Z,95.27
2018-01-27T11:45:16.727Z,96.15
2018-01-27T11:46:16.749Z,95.88
2018-01-27T11:47:16.722Z,96.16
2018-01-27T11:48:16.682Z,95.86
2018-01-27T11:49:16.735Z,96.12
2018-01-27T11:50:16.713Z,95.91
2018-01-27T11:51:16.764Z,95.97
2018-01-27T11:52:16.728Z,95.83
2018-01-27T11:53:16.760Z,95.21
2018-01-27T11:54:16.727Z,94.86
2018-01-27T11:55:16.732Z,94.68
2018-01-27T11:56:16.751Z,95.5
2018-01-27T11:57:16.726Z,95.7
2018-01-27T11:58:16.755Z,95.66
2018-01-27T11:59:16.717Z,95.69
2018-01-27T12:00:16.695Z,96.07
2018-01-27T12:01:16.753Z,95.44
2018-01-27T12:02:16.720Z,95.4
2018-01-27T12:03:16.776Z,95.5
2018-01-27T12:04:16.718Z,95.45
2018-01-27T12:05:17.038Z,95.26
2018-01-27T12:06:16.672Z,95.23
2018-01-27T12:07:16.920Z,95.21
2018-01-27T12:08:16.750Z,95.41
2018-01-27T12:09:16.696Z,95.72
2018-01-27T12:10:16.804Z,95.62
2018-01-27T12:11:16.744Z,95.78
2018-01-27T12:12:16.821Z,95.39
2018-01-27T12:13:16.746Z,95.78
2018-01-27T12:14:16.747Z,95.64
2018-01-27T12:15:16.804Z,95.49
2018-01-27T12:16:16.925Z,95.6
2018-01-27T12:17:16.782Z,96.58
2018-01-27T12:18:16.808Z,95.83
2018-01-27T12:19:16.802Z,95.91
2018-01-27T12:20:16.716Z,95.58
2018-01-27T12:21:16.790Z,95.78
2018-01-27T12:22:16.772Z,95.89
2018-01-27T12:23:16.812Z,95.68
2018-01-27T12:24:16.789Z,95.82
2018-01-27T12:25:16.741Z,95.79
2018-01-27T12:26:16.828Z,95.58
2018-01-27T12:27:16.868Z,95.75
2018-01-27T12:30:16.894Z,96.11
2018-01-27T12:31:16.877Z,96.56
2018-01-27T12:32:16.769Z,95.81
2018-01-27T12:33:16.810Z,95.49
2018-01-27T12:34:16.837Z,95.88
2018-01-27T12:35:16.790Z,95.83
2018-01-27T12:36:16.841Z,95.99
2018-01-27T12:37:16.796Z,95.9
2018-01-27T12:38:16.773Z,95.87
2018-01-27T12:39:16.872Z,95.73
2018-01-27T12:40:16.758Z,95.77
2018-01-27T12:41:16.773Z,95.86
2018-01-27T12:42:16.939Z,95.84
2018-01-27T12:43:16.808Z,95.6
2018-01-27T12:44:16.832Z,95.91
2018-01-27T12:45:16.855Z,95.47
2018-01-27T12:46:16.785Z,95.29
2018-01-27T12:47:16.856Z,95.52
2018-01-27T12:48:16.831Z,96.02
2018-01-27T12:49:16.832Z,95.92
2018-01-27T12:50:16.776Z,96.02
2018-01-27T12:51:16.815Z,95.92
2018-01-27T12:52:16.905Z,96.2
2018-01-27T12:53:16.902Z,95.89
2018-01-27T12:54:16.917Z,95.92
2018-01-27T12:55:16.884Z,95.68
2018-01-27T12:56:16.864Z,95.67
2018-01-27T12:57:17.036Z,95.41
2018-01-27T12:58:16.949Z,95.69
2018-01-27T12:59:16.866Z,95.35
2018-01-27T13:00:16.885Z,95.87
2018-01-27T13:01:16.888Z,95.7
2018-01-27T13:02:16.909Z,95.71
2018-01-27T13:03:17.072Z,95.68